Time;durP1;ratioP1;P1;durP2;ratioP2;P2;SDS_P1;SDS_P2;PMS_P1;PMS_P2;Temp;Humidity;BMP_temperature;BMP_pressure;BME280_temperature;BME280_humidity;BME280_pressure;Samples;Min_cycle;Max_cycle;Signal;HPM_P1;HPM_P2
2022/09/09 00:01:27;;;;;;;;;;;16.80;99.90;;;;;;5068808;28;19913;-67
2022/09/09 00:03:59;;;;;;;;;;;16.70;99.90;;;;;;5070488;28;19927;-68
2022/09/09 00:06:28;;;;;;;;;;;16.70;99.90;;;;;;5070267;28;20310;-68
2022/09/09 00:08:56;;;;;;;;;;;16.60;99.90;;;;;;5073549;28;19919;-67
2022/09/09 00:11:26;;;;;;;;;;;16.60;99.90;;;;;;5075137;28;19916;-68
2022/09/09 00:13:56;;;;;;;;;;;16.70;99.90;;;;;;5076350;28;19920;-68
2022/09/09 00:16:24;;;;;;;;;;;16.70;99.90;;;;;;5070295;28;20004;-67
2022/09/09 00:18:53;;;;;;;;;;;16.80;99.90;;;;;;5070122;28;19963;-66
2022/09/09 00:21:19;;;;;;;;;;;16.80;99.90;;;;;;5071955;28;19912;-68
2022/09/09 00:23:48;;;;;;;;;;;16.70;99.90;;;;;;5070920;28;19935;-67
2022/09/09 00:26:14;;;;;;;;;;;16.60;99.90;;;;;;5069836;28;19917;-68
2022/09/09 00:28:43;;;;;;;;;;;16.50;99.90;;;;;;5072054;28;19958;-68
2022/09/09 00:31:15;;;;;;;;;;;16.60;99.90;;;;;;5071888;28;19957;-67
2022/09/09 00:33:42;;;;;;;;;;;16.50;99.90;;;;;;5068494;28;19912;-68
2022/09/09 00:36:13;;;;;;;;;;;16.40;99.90;;;;;;5072542;28;19912;-67
2022/09/09 00:38:43;;;;;;;;;;;16.50;99.90;;;;;;5066243;28;19915;-68
2022/09/09 00:41:15;;;;;;;;;;;16.50;99.90;;;;;;5071627;28;19912;-67
2022/09/09 00:43:41;;;;;;;;;;;16.60;99.90;;;;;;5069704;28;19912;-67
2022/09/09 00:46:30;;;;;;;;;;;16.60;99.90;;;;;;5072178;28;19923;-67
2022/09/09 00:48:55;;;;;;;;;;;16.70;99.90;;;;;;5027286;28;19913;-67
2022/09/09 00:51:30;;;;;;;;;;;16.80;99.90;;;;;;5070233;28;19913;-67
2022/09/09 00:54:19;;;;;;;;;;;16.80;99.90;;;;;;5072048;28;19917;-67
2022/09/09 00:56:50;;;;;;;;;;;16.90;99.90;;;;;;5071302;28;19912;-67
2022/09/09 00:59:25;;;;;;;;;;;16.90;99.90;;;;;;5069341;28;20417;-68
2022/09/09 01:01:51;;;;;;;;;;;16.90;99.90;;;;;;5069323;28;19999;-67
2022/09/09 01:04:22;;;;;;;;;;;16.90;99.90;;;;;;5070447;28;19920;-68
2022/09/09 01:06:54;;;;;;;;;;;16.70;99.90;;;;;;5067488;28;20267;-67
2022/09/09 01:09:36;;;;;;;;;;;16.60;99.90;;;;;;5068532;28;20367;-66
2022/09/09 01:12:01;;;;;;;;;;;16.60;99.90;;;;;;5070362;28;20282;-67
2022/09/09 01:14:30;;;;;;;;;;;16.50;99.90;;;;;;5062675;28;19913;-68
2022/09/09 01:16:59;;;;;;;;;;;16.40;99.90;;;;;;5061699;28;20426;-67
2022/09/09 01:19:36;;;;;;;;;;;16.40;99.90;;;;;;5040731;28;20023;-67
2022/09/09 01:22:06;;;;;;;;;;;16.40;99.90;;;;;;5061675;28;19920;-68
2022/09/09 01:24:35;;;;;;;;;;;16.40;99.90;;;;;;5057889;28;20273;-68
2022/09/09 01:27:02;;;;;;;;;;;16.30;99.90;;;;;;5058223;28;19916;-68
2022/09/09 01:29:28;;;;;;;;;;;16.30;99.90;;;;;;5072144;28;19919;-67
2022/09/09 01:31:55;;;;;;;;;;;16.30;99.90;;;;;;5056956;28;19965;-67
2022/09/09 01:34:22;;;;;;;;;;;16.20;99.90;;;;;;5073969;28;19912;-68
2022/09/09 01:36:53;;;;;;;;;;;16.30;99.90;;;;;;5075066;28;20387;-68
2022/09/09 01:39:19;;;;;;;;;;;16.30;99.90;;;;;;5068987;28;19955;-67
2022/09/09 01:41:45;;;;;;;;;;;16.40;99.90;;;;;;5069269;28;19956;-67
2022/09/09 01:44:10;;;;;;;;;;;16.50;99.90;;;;;;5064579;28;20374;-68
2022/09/09 01:46:36;;;;;;;;;;;16.50;99.90;;;;;;5047342;28;20058;-68
2022/09/09 01:49:03;;;;;;;;;;;16.60;99.90;;;;;;5070981;28;20007;-68
2022/09/09 01:51:29;;;;;;;;;;;16.50;99.90;;;;;;5068503;28;19955;-67
2022/09/09 01:53:55;;;;;;;;;;;16.50;99.90;;;;;;5067118;28;19944;-67
2022/09/09 01:56:26;;;;;;;;;;;16.50;99.90;;;;;;5072416;28;19916;-67
2022/09/09 01:58:52;;;;;;;;;;;16.50;99.90;;;;;;5069455;28;19920;-68
2022/09/09 02:01:24;;;;;;;;;;;16.40;99.90;;;;;;5065665;28;19913;-66
2022/09/09 02:03:53;;;;;;;;;;;16.30;99.90;;;;;;5069917;28;19928;-67
2022/09/09 02:06:33;;;;;;;;;;;16.30;99.90;;;;;;5057822;28;20287;-67
2022/09/09 02:09:01;;;;;;;;;;;16.30;99.90;;;;;;5066591;28;19916;-68
2022/09/09 02:11:27;;;;;;;;;;;16.40;99.90;;;;;;5071475;28;20275;-67
2022/09/09 02:13:56;;;;;;;;;;;16.30;99.90;;;;;;5074413;28;19912;-67
2022/09/09 02:16:32;;;;;;;;;;;16.20;99.90;;;;;;5069689;28;19923;-67
2022/09/09 02:19:08;;;;;;;;;;;16.20;99.90;;;;;;5065237;28;20299;-68
2022/09/09 02:21:35;;;;;;;;;;;16.20;99.90;;;;;;5063332;28;20533;-67
2022/09/09 02:24:04;;;;;;;;;;;16.10;99.90;;;;;;5065791;28;19921;-67
2022/09/09 02:26:30;;;;;;;;;;;16.20;99.90;;;;;;5067347;28;19917;-68
2022/09/09 02:28:59;;;;;;;;;;;16.20;99.90;;;;;;5068270;28;19912;-68
2022/09/09 02:31:25;;;;;;;;;;;16.20;99.90;;;;;;5070449;28;20291;-68
2022/09/09 02:34:00;;;;;;;;;;;16.30;99.90;;;;;;5067454;28;19912;-67
2022/09/09 02:36:28;;;;;;;;;;;16.40;99.90;;;;;;5063559;28;19919;-66
2022/09/09 02:38:55;;;;;;;;;;;16.30;99.90;;;;;;5062534;28;20005;-67
2022/09/09 02:41:24;;;;;;;;;;;16.40;99.90;;;;;;5060043;28;19920;-67
2022/09/09 02:43:49;;;;;;;;;;;16.30;99.90;;;;;;5067216;28;20332;-67
2022/09/09 02:46:15;;;;;;;;;;;16.30;99.90;;;;;;5067871;28;20003;-67
2022/09/09 02:48:59;;;;;;;;;;;16.10;99.90;;;;;;5065899;28;20474;-67
2022/09/09 02:51:25;;;;;;;;;;;16.10;99.90;;;;;;5067987;28;19920;-68
2022/09/09 02:53:50;;;;;;;;;;;16.30;99.90;;;;;;5068808;28;19912;-67
2022/09/09 02:56:18;;;;;;;;;;;16.30;99.90;;;;;;5071309;28;19912;-68
2022/09/09 02:58:44;;;;;;;;;;;16.30;99.90;;;;;;5067283;28;19916;-68
2022/09/09 03:01:09;;;;;;;;;;;16.40;99.90;;;;;;5062328;28;19927;-68
2022/09/09 03:03:35;;;;;;;;;;;16.40;99.90;;;;;;5054181;28;19973;-68
2022/09/09 03:06:03;;;;;;;;;;;16.40;99.90;;;;;;5055278;28;20399;-67
2022/09/09 03:08:28;;;;;;;;;;;16.40;99.90;;;;;;5071790;28;19917;-68
2022/09/09 03:10:54;;;;;;;;;;;16.40;99.90;;;;;;5072417;28;19943;-68
2022/09/09 03:13:20;;;;;;;;;;;16.30;99.90;;;;;;5069154;28;19962;-68
2022/09/09 03:15:45;;;;;;;;;;;16.20;99.90;;;;;;5069211;28;19916;-68
2022/09/09 03:18:11;;;;;;;;;;;16.20;99.90;;;;;;5069015;28;19999;-68
2022/09/09 03:20:36;;;;;;;;;;;16.10;99.90;;;;;;5054226;28;19948;-67
2022/09/09 03:23:02;;;;;;;;;;;16.10;99.90;;;;;;5069406;28;19913;-67
2022/09/09 03:25:28;;;;;;;;;;;16.00;99.90;;;;;;5069400;28;20002;-67
2022/09/09 03:27:55;;;;;;;;;;;15.80;99.90;;;;;;5068302;28;19912;-68
2022/09/09 03:30:25;;;;;;;;;;;15.80;99.90;;;;;;5068115;28;20330;-68
2022/09/09 03:32:51;;;;;;;;;;;15.80;99.90;;;;;;5046827;28;19979;-67
2022/09/09 03:35:17;;;;;;;;;;;15.80;99.90;;;;;;5067346;28;19916;-68
2022/09/09 03:37:43;;;;;;;;;;;15.80;99.90;;;;;;5038519;28;19912;-67
2022/09/09 03:40:11;;;;;;;;;;;15.70;99.90;;;;;;5046759;28;20015;-66
2022/09/09 03:42:37;;;;;;;;;;;15.80;99.90;;;;;;5068915;28;20343;-66
2022/09/09 03:45:23;;;;;;;;;;;15.80;99.90;;;;;;5068755;28;19920;-67
2022/09/09 03:47:49;;;;;;;;;;;15.70;99.90;;;;;;5049611;28;20395;-67
2022/09/09 03:50:15;;;;;;;;;;;15.70;99.90;;;;;;5050936;28;20007;-67
2022/09/09 03:52:41;;;;;;;;;;;15.60;99.90;;;;;;5067730;28;20007;-68
2022/09/09 03:55:07;;;;;;;;;;;15.50;99.90;;;;;;5066455;28;19959;-68
2022/09/09 03:57:34;;;;;;;;;;;15.50;99.90;;;;;;5056954;28;20402;-68
2022/09/09 04:00:02;;;;;;;;;;;15.60;99.90;;;;;;5062636;28;19972;-68
2022/09/09 04:02:28;;;;;;;;;;;15.60;99.90;;;;;;5067536;28;19947;-68
2022/09/09 04:04:54;;;;;;;;;;;15.60;99.90;;;;;;5068504;28;19956;-67
2022/09/09 04:07:19;;;;;;;;;;;15.80;99.90;;;;;;5067265;28;20346;-68
2022/09/09 04:09:45;;;;;;;;;;;15.80;99.90;;;;;;5069031;28;20631;-68
2022/09/09 04:12:13;;;;;;;;;;;16.00;99.90;;;;;;5067841;28;19912;-68
2022/09/09 04:14:38;;;;;;;;;;;16.00;99.90;;;;;;5067276;28;19916;-68
2022/09/09 04:17:06;;;;;;;;;;;16.10;99.90;;;;;;5067043;28;20348;-68
2022/09/09 04:19:32;;;;;;;;;;;16.00;99.90;;;;;;5058621;28;19946;-68
2022/09/09 04:21:57;;;;;;;;;;;16.10;99.90;;;;;;5065400;28;19920;-69
2022/09/09 04:24:23;;;;;;;;;;;16.10;99.90;;;;;;5068569;28;19924;-68
2022/09/09 04:26:48;;;;;;;;;;;16.10;99.90;;;;;;5064778;28;19916;-68
2022/09/09 04:29:14;;;;;;;;;;;16.10;99.90;;;;;;5070777;28;19912;-67
2022/09/09 04:31:41;;;;;;;;;;;16.20;99.90;;;;;;5067429;28;20275;-67
2022/09/09 04:34:08;;;;;;;;;;;16.20;99.90;;;;;;5064325;28;19929;-67
2022/09/09 04:36:34;;;;;;;;;;;16.20;99.90;;;;;;5063334;28;19912;-68
2022/09/09 04:39:01;;;;;;;;;;;16.20;99.90;;;;;;5040769;28;19912;-68
2022/09/09 04:41:27;;;;;;;;;;;16.10;99.90;;;;;;5064359;28;20334;-68
2022/09/09 04:43:53;;;;;;;;;;;16.00;99.90;;;;;;5066768;28;20011;-66
2022/09/09 04:46:19;;;;;;;;;;;15.90;99.90;;;;;;5068315;28;19951;-68
2022/09/09 04:48:45;;;;;;;;;;;15.80;99.90;;;;;;5068885;28;19938;-68
2022/09/09 04:51:11;;;;;;;;;;;15.80;99.90;;;;;;5071697;28;19936;-68
2022/09/09 04:53:37;;;;;;;;;;;15.90;99.90;;;;;;5067439;28;19912;-68
2022/09/09 04:56:11;;;;;;;;;;;15.90;99.90;;;;;;5064133;28;19923;-67
2022/09/09 04:58:37;;;;;;;;;;;15.90;99.90;;;;;;5069959;28;19919;-67
2022/09/09 05:01:06;;;;;;;;;;;15.90;99.90;;;;;;5067724;28;19924;-67
2022/09/09 05:03:32;;;;;;;;;;;15.90;99.90;;;;;;5065089;28;19925;-68
2022/09/09 05:06:04;;;;;;;;;;;15.90;99.90;;;;;;5064142;28;19920;-68
2022/09/09 05:08:30;;;;;;;;;;;16.00;99.90;;;;;;5063864;28;19924;-68
2022/09/09 05:10:55;;;;;;;;;;;16.10;99.90;;;;;;5067455;28;19912;-68
2022/09/09 05:13:22;;;;;;;;;;;16.10;99.90;;;;;;5069574;28;19959;-67
2022/09/09 05:15:52;;;;;;;;;;;16.10;99.90;;;;;;5066959;28;20319;-67
2022/09/09 05:18:18;;;;;;;;;;;16.10;99.90;;;;;;5069984;28;19972;-69
2022/09/09 05:20:43;;;;;;;;;;;16.20;99.90;;;;;;5068772;28;20450;-67
2022/09/09 05:23:11;;;;;;;;;;;16.10;99.90;;;;;;5072395;28;20326;-68
2022/09/09 05:25:36;;;;;;;;;;;16.20;99.90;;;;;;5067663;28;19917;-68
2022/09/09 05:28:02;;;;;;;;;;;16.20;99.90;;;;;;5070367;28;20054;-69
2022/09/09 05:30:27;;;;;;;;;;;16.20;99.90;;;;;;5071879;28;19909;-67
2022/09/09 05:32:55;;;;;;;;;;;16.20;99.90;;;;;;5069439;28;19919;-67
2022/09/09 05:35:21;;;;;;;;;;;16.30;99.90;;;;;;5048321;28;19995;-67
2022/09/09 05:37:47;;;;;;;;;;;16.20;99.90;;;;;;5071799;28;20919;-67
2022/09/09 05:40:13;;;;;;;;;;;16.30;99.90;;;;;;5066175;28;19920;-67
2022/09/09 05:42:39;;;;;;;;;;;16.30;99.90;;;;;;5069148;28;19915;-68
2022/09/09 05:45:05;;;;;;;;;;;16.20;99.90;;;;;;5067101;28;19944;-68
2022/09/09 05:47:30;;;;;;;;;;;16.30;99.90;;;;;;5044894;28;20017;-67
2022/09/09 05:49:56;;;;;;;;;;;16.20;99.90;;;;;;5071228;28;19931;-67
2022/09/09 05:52:23;;;;;;;;;;;16.30;99.90;;;;;;5053223;28;19913;-68
2022/09/09 05:54:49;;;;;;;;;;;16.30;99.90;;;;;;5049875;28;19959;-68
2022/09/09 05:57:14;;;;;;;;;;;16.30;99.90;;;;;;5068176;28;20025;-67
2022/09/09 05:59:40;;;;;;;;;;;16.30;99.90;;;;;;5060293;28;19920;-69
2022/09/09 06:02:05;;;;;;;;;;;16.20;99.90;;;;;;5058465;28;19939;-68
2022/09/09 06:04:32;;;;;;;;;;;16.20;99.90;;;;;;5061825;28;20444;-68
2022/09/09 06:06:57;;;;;;;;;;;16.20;99.90;;;;;;5062411;28;20024;-69
2022/09/09 06:09:23;;;;;;;;;;;16.20;99.90;;;;;;5062036;28;19966;-68
2022/09/09 06:11:48;;;;;;;;;;;16.20;99.90;;;;;;5065209;28;19912;-68
2022/09/09 06:14:14;;;;;;;;;;;16.30;99.90;;;;;;5060078;28;19913;-68
2022/09/09 06:16:43;;;;;;;;;;;16.30;99.90;;;;;;5063569;28;19924;-68
2022/09/09 06:19:09;;;;;;;;;;;16.20;99.90;;;;;;5068028;28;20346;-67
2022/09/09 06:21:36;;;;;;;;;;;16.10;99.90;;;;;;5065044;28;19912;-68
2022/09/09 06:24:03;;;;;;;;;;;16.20;99.90;;;;;;5069415;28;20007;-68
2022/09/09 06:26:35;;;;;;;;;;;16.20;99.90;;;;;;5068373;28;20007;-68
2022/09/09 06:29:03;;;;;;;;;;;16.20;99.90;;;;;;5065699;28;20379;-68
2022/09/09 06:31:33;;;;;;;;;;;16.20;99.90;;;;;;5066105;28;19917;-67
2022/09/09 06:34:00;;;;;;;;;;;16.10;99.90;;;;;;5061042;28;19917;-68
2022/09/09 06:36:27;;;;;;;;;;;16.20;99.90;;;;;;5060746;28;19920;-68
2022/09/09 06:38:53;;;;;;;;;;;16.20;99.90;;;;;;5067519;28;19912;-68
2022/09/09 06:41:19;;;;;;;;;;;16.10;99.90;;;;;;5066771;28;19919;-68
2022/09/09 06:43:45;;;;;;;;;;;16.10;99.90;;;;;;5066021;28;19926;-67
2022/09/09 06:46:15;;;;;;;;;;;16.20;99.90;;;;;;5066365;28;20026;-68
2022/09/09 06:48:41;;;;;;;;;;;16.20;99.90;;;;;;5069337;28;20205;-68
2022/09/09 06:51:11;;;;;;;;;;;16.20;99.90;;;;;;5069358;28;19919;-68
2022/09/09 06:53:37;;;;;;;;;;;16.20;99.90;;;;;;5062214;28;19912;-68
2022/09/09 06:56:23;;;;;;;;;;;16.20;99.90;;;;;;5067629;28;19944;-66
2022/09/09 06:58:49;;;;;;;;;;;16.30;99.90;;;;;;5068297;28;19920;-67
2022/09/09 07:01:16;;;;;;;;;;;16.20;99.90;;;;;;5060793;28;19916;-67
2022/09/09 07:03:42;;;;;;;;;;;16.20;99.90;;;;;;5066230;28;19970;-68
2022/09/09 07:06:14;;;;;;;;;;;16.20;99.90;;;;;;5065942;28;20004;-67
2022/09/09 07:08:40;;;;;;;;;;;16.30;99.90;;;;;;5073496;28;19919;-68
2022/09/09 07:11:06;;;;;;;;;;;16.50;99.90;;;;;;5070066;28;19912;-68
2022/09/09 07:13:32;;;;;;;;;;;16.50;99.90;;;;;;5053755;28;20405;-68
2022/09/09 07:16:08;;;;;;;;;;;16.70;99.90;;;;;;5062124;28;20025;-69
2022/09/09 07:18:34;;;;;;;;;;;16.70;99.90;;;;;;5069231;28;19916;-67
2022/09/09 07:21:01;;;;;;;;;;;16.80;99.90;;;;;;5062278;28;19921;-67
2022/09/09 07:23:27;;;;;;;;;;;16.80;99.90;;;;;;5043285;28;19923;-68
2022/09/09 07:25:53;;;;;;;;;;;16.90;99.90;;;;;;5070159;28;19917;-68
2022/09/09 07:28:19;;;;;;;;;;;16.90;99.90;;;;;;5063936;28;19931;-68
2022/09/09 07:30:52;;;;;;;;;;;17.10;99.90;;;;;;5069084;28;19913;-68
2022/09/09 07:33:19;;;;;;;;;;;17.10;99.90;;;;;;5068587;28;19916;-68
2022/09/09 07:35:45;;;;;;;;;;;17.20;99.90;;;;;;5068826;28;19916;-69
2022/09/09 07:38:11;;;;;;;;;;;17.30;99.90;;;;;;5050641;28;19913;-68
2022/09/09 07:40:37;;;;;;;;;;;17.30;99.90;;;;;;5064505;28;19985;-68
2022/09/09 07:43:02;;;;;;;;;;;17.30;99.90;;;;;;5058995;28;19977;-68
2022/09/09 07:45:28;;;;;;;;;;;17.20;99.90;;;;;;5058062;28;19913;-68
2022/09/09 07:47:56;;;;;;;;;;;17.20;99.90;;;;;;5073687;28;19924;-68
2022/09/09 07:50:22;;;;;;;;;;;17.20;99.90;;;;;;5074593;28;19924;-67
2022/09/09 07:52:48;;;;;;;;;;;17.20;99.90;;;;;;5068391;28;19912;-68
2022/09/09 07:55:14;;;;;;;;;;;17.10;99.90;;;;;;5060664;28;20333;-68
2022/09/09 07:57:40;;;;;;;;;;;17.00;99.90;;;;;;5072722;28;19913;-68
2022/09/09 08:00:06;;;;;;;;;;;16.90;99.90;;;;;;5063449;28;19916;-68
2022/09/09 08:02:31;;;;;;;;;;;16.80;99.90;;;;;;5052040;28;19913;-68
2022/09/09 08:04:57;;;;;;;;;;;16.80;99.90;;;;;;5065153;28;19927;-68
2022/09/09 08:07:23;;;;;;;;;;;16.80;99.90;;;;;;5076733;28;20374;-69
2022/09/09 08:09:49;;;;;;;;;;;16.90;99.90;;;;;;5072417;28;19912;-68
2022/09/09 08:12:15;;;;;;;;;;;16.90;99.90;;;;;;5073971;28;19913;-68
2022/09/09 08:14:41;;;;;;;;;;;17.00;99.90;;;;;;5050435;28;19912;-68
2022/09/09 08:17:06;;;;;;;;;;;17.10;99.90;;;;;;5072720;28;20398;-68
2022/09/09 08:19:35;;;;;;;;;;;17.20;99.90;;;;;;5073668;28;19908;-68
2022/09/09 08:22:02;;;;;;;;;;;17.40;99.90;;;;;;5050092;28;20283;-68
2022/09/09 08:24:28;;;;;;;;;;;17.50;99.90;;;;;;5073644;28;19941;-67
2022/09/09 08:26:53;;;;;;;;;;;17.60;99.90;;;;;;5057216;28;20355;-68
2022/09/09 08:29:19;;;;;;;;;;;17.80;99.90;;;;;;5075863;28;19912;-69
2022/09/09 08:31:46;;;;;;;;;;;17.90;99.90;;;;;;5068311;28;20320;-67
2022/09/09 08:34:12;;;;;;;;;;;18.00;99.90;;;;;;5074767;28;19912;-68
2022/09/09 08:36:42;;;;;;;;;;;18.00;99.90;;;;;;5054894;28;19913;-69
2022/09/09 08:39:08;;;;;;;;;;;17.90;99.90;;;;;;5076753;28;19912;-67
2022/09/09 08:41:34;;;;;;;;;;;17.80;99.90;;;;;;5057390;28;20397;-68
2022/09/09 08:44:06;;;;;;;;;;;17.90;99.90;;;;;;5076030;28;19916;-68
2022/09/09 08:46:32;;;;;;;;;;;17.90;99.90;;;;;;5074613;28;19917;-67
2022/09/09 08:49:16;;;;;;;;;;;18.00;99.90;;;;;;5055708;28;19965;-68
2022/09/09 08:51:42;;;;;;;;;;;18.00;99.90;;;;;;5074813;28;19913;-68
2022/09/09 08:54:08;;;;;;;;;;;18.00;99.90;;;;;;5073519;28;19941;-68
2022/09/09 08:56:35;;;;;;;;;;;17.90;99.90;;;;;;5067677;28;20279;-68
2022/09/09 08:59:05;;;;;;;;;;;17.80;99.90;;;;;;5084777;28;19973;-67
2022/09/09 09:01:50;;;;;;;;;;;17.80;99.90;;;;;;5076529;28;19918;-68
2022/09/09 09:04:24;;;;;;;;;;;17.80;99.90;;;;;;5074705;28;19928;-68
2022/09/09 09:06:58;;;;;;;;;;;17.70;99.90;;;;;;5073518;28;19975;-68
2022/09/09 09:09:39;;;;;;;;;;;17.70;99.90;;;;;;5072578;28;19912;-68
2022/09/09 09:12:14;;;;;;;;;;;17.60;99.90;;;;;;5073761;28;19913;-68
2022/09/09 09:14:40;;;;;;;;;;;17.60;99.90;;;;;;5072679;28;19924;-68
2022/09/09 09:17:09;;;;;;;;;;;17.70;99.90;;;;;;5071608;28;19921;-67
2022/09/09 09:19:35;;;;;;;;;;;17.60;99.90;;;;;;5067868;28;19970;-68
2022/09/09 09:22:16;;;;;;;;;;;17.70;99.90;;;;;;5068998;28;19955;-68
2022/09/09 09:24:47;;;;;;;;;;;17.70;99.90;;;;;;5065938;28;19958;-68
2022/09/09 09:27:14;;;;;;;;;;;17.80;99.90;;;;;;5067563;28;19924;-68
2022/09/09 09:29:40;;;;;;;;;;;17.90;99.90;;;;;;5059240;28;20046;-68
2022/09/09 09:32:09;;;;;;;;;;;18.00;99.90;;;;;;5067979;28;20061;-68
2022/09/09 09:34:35;;;;;;;;;;;18.00;99.90;;;;;;5066262;28;20041;-68
2022/09/09 09:37:04;;;;;;;;;;;18.00;99.90;;;;;;5066925;28;19974;-68
2022/09/09 09:39:31;;;;;;;;;;;18.00;99.90;;;;;;5067138;28;19940;-68
2022/09/09 09:41:57;;;;;;;;;;;18.20;99.90;;;;;;5063353;28;19913;-68
2022/09/09 09:44:29;;;;;;;;;;;18.30;99.90;;;;;;5066916;28;19920;-68
2022/09/09 09:47:08;;;;;;;;;;;18.20;99.90;;;;;;5069339;28;20392;-68
2022/09/09 09:49:33;;;;;;;;;;;18.00;99.90;;;;;;5051520;28;19923;-67
2022/09/09 09:52:03;;;;;;;;;;;17.90;99.90;;;;;;5051132;28;20347;-68
2022/09/09 09:54:29;;;;;;;;;;;17.90;99.90;;;;;;5068471;28;22196;-68
2022/09/09 09:56:55;;;;;;;;;;;17.90;99.90;;;;;;5065512;28;19917;-68
2022/09/09 09:59:27;;;;;;;;;;;17.80;99.90;;;;;;5066244;28;19939;-67
2022/09/09 10:01:52;;;;;;;;;;;17.60;99.90;;;;;;5063926;28;20244;-68
2022/09/09 10:04:20;;;;;;;;;;;17.30;99.90;;;;;;5066846;28;20725;-68
2022/09/09 10:06:46;;;;;;;;;;;17.20;99.90;;;;;;5070366;28;20390;-68
2022/09/09 10:09:28;;;;;;;;;;;17.30;99.90;;;;;;5047827;28;19913;-67
2022/09/09 10:12:06;;;;;;;;;;;17.30;99.90;;;;;;5066101;28;19916;-69
2022/09/09 10:14:41;;;;;;;;;;;17.30;99.90;;;;;;5066544;28;20261;-68
2022/09/09 10:17:27;;;;;;;;;;;17.50;99.90;;;;;;5067053;28;19912;-68
2022/09/09 10:20:04;;;;;;;;;;;17.70;99.90;;;;;;5065304;28;19955;-69
2022/09/09 10:22:34;;;;;;;;;;;17.70;99.90;;;;;;5068764;28;19919;-68
2022/09/09 10:25:08;;;;;;;;;;;17.90;99.90;;;;;;5065967;28;20347;-68
2022/09/09 10:27:46;;;;;;;;;;;17.80;99.90;;;;;;5061283;28;19924;-69
2022/09/09 10:30:19;;;;;;;;;;;17.70;99.90;;;;;;5066190;28;20359;-68
2022/09/09 10:32:50;;;;;;;;;;;17.60;99.90;;;;;;5066839;28;20228;-67
2022/09/09 10:35:25;;;;;;;;;;;17.60;99.90;;;;;;5064480;28;19913;-68
2022/09/09 10:37:54;;;;;;;;;;;17.60;99.90;;;;;;5042688;28;19956;-67
2022/09/09 10:40:42;;;;;;;;;;;17.70;99.90;;;;;;5050354;28;20087;-68
2022/09/09 10:43:26;;;;;;;;;;;17.80;99.90;;;;;;5059427;28;20397;-68
2022/09/09 10:46:03;;;;;;;;;;;18.00;99.90;;;;;;5049027;28;20057;-69
2022/09/09 10:48:37;;;;;;;;;;;18.10;99.90;;;;;;5065064;28;19920;-68
2022/09/09 10:51:09;;;;;;;;;;;18.10;99.90;;;;;;5048353;28;20434;-68
2022/09/09 10:54:06;;;;;;;;;;;18.00;99.90;;;;;;5066096;28;19923;-68
2022/09/09 10:56:34;;;;;;;;;;;18.10;99.90;;;;;;5021702;28;20371;-68
2022/09/09 10:58:59;;;;;;;;;;;18.30;99.90;;;;;;5065866;28;19913;-69
2022/09/09 11:01:25;;;;;;;;;;;18.20;99.90;;;;;;5064022;28;19920;-69
2022/09/09 11:03:57;;;;;;;;;;;18.10;99.90;;;;;;5065082;28;19923;-68
2022/09/09 11:06:28;;;;;;;;;;;18.20;99.90;;;;;;5062713;28;19916;-68
2022/09/09 11:08:55;;;;;;;;;;;18.10;99.90;;;;;;5064114;28;19912;-68
2022/09/09 11:11:33;;;;;;;;;;;18.40;99.90;;;;;;5043002;28;19920;-67
2022/09/09 11:14:08;;;;;;;;;;;18.40;99.90;;;;;;5063665;28;20336;-68
2022/09/09 11:16:40;;;;;;;;;;;18.30;99.90;;;;;;5060355;28;20423;-68
2022/09/09 11:19:14;;;;;;;;;;;18.30;99.90;;;;;;5065191;28;19996;-68
2022/09/09 11:21:47;;;;;;;;;;;18.40;99.90;;;;;;5063103;28;19955;-68
2022/09/09 11:24:25;;;;;;;;;;;18.60;99.90;;;;;;5066013;28;19917;-69
2022/09/09 11:27:00;;;;;;;;;;;18.70;99.90;;;;;;5064092;28;19917;-68
2022/09/09 11:29:44;;;;;;;;;;;18.90;99.90;;;;;;5065365;28;19916;-67
2022/09/09 11:32:18;;;;;;;;;;;19.20;99.90;;;;;;5064144;28;20213;-68
2022/09/09 11:34:44;;;;;;;;;;;19.10;99.90;;;;;;5059361;28;19936;-68
2022/09/09 11:37:13;;;;;;;;;;;18.90;99.90;;;;;;5064489;28;20359;-68
2022/09/09 11:39:52;;;;;;;;;;;18.90;99.90;;;;;;5046028;28;19931;-68
2022/09/09 11:42:22;;;;;;;;;;;18.80;99.90;;;;;;5064042;28;20566;-68
2022/09/09 11:44:48;;;;;;;;;;;18.90;99.90;;;;;;5061729;28;19923;-68
2022/09/09 11:47:29;;;;;;;;;;;18.90;99.90;;;;;;5063391;28;19916;-68
2022/09/09 11:50:15;;;;;;;;;;;19.10;99.90;;;;;;5064677;28;20280;-68
2022/09/09 11:52:42;;;;;;;;;;;19.40;99.90;;;;;;5049584;28;20060;-68
2022/09/09 11:55:26;;;;;;;;;;;19.60;99.90;;;;;;5066869;28;20434;-67
2022/09/09 11:57:59;;;;;;;;;;;19.70;99.90;;;;;;5063939;28;20347;-68
2022/09/09 12:00:44;;;;;;;;;;;19.80;99.90;;;;;;5066008;28;20248;-68
2022/09/09 12:03:29;;;;;;;;;;;19.80;99.90;;;;;;5068723;28;20415;-68
2022/09/09 12:05:55;;;;;;;;;;;19.70;99.90;;;;;;5069770;28;19971;-68
2022/09/09 12:08:26;;;;;;;;;;;19.80;99.90;;;;;;5070521;28;19921;-68
2022/09/09 12:10:56;;;;;;;;;;;19.90;99.90;;;;;;5063620;28;19913;-68
2022/09/09 12:13:23;;;;;;;;;;;20.00;99.90;;;;;;5065285;28;20435;-67
2022/09/09 12:15:49;;;;;;;;;;;20.00;99.90;;;;;;5054119;28;19952;-69
2022/09/09 12:18:35;;;;;;;;;;;20.00;99.90;;;;;;5069079;28;19912;-68
2022/09/09 12:21:01;;;;;;;;;;;19.90;99.90;;;;;;5068281;28;19943;-68
2022/09/09 12:23:27;;;;;;;;;;;19.90;99.90;;;;;;5066566;28;19920;-69
2022/09/09 12:25:52;;;;;;;;;;;19.80;99.90;;;;;;5067532;28;19966;-68
2022/09/09 12:28:20;;;;;;;;;;;19.90;99.90;;;;;;5051106;28;19917;-69
2022/09/09 12:30:48;;;;;;;;;;;19.80;99.90;;;;;;5063435;28;19969;-68
2022/09/09 12:33:17;;;;;;;;;;;19.80;99.90;;;;;;5068080;28;19916;-68
2022/09/09 12:35:44;;;;;;;;;;;19.80;99.90;;;;;;5068050;28;19924;-67
2022/09/09 12:38:13;;;;;;;;;;;19.90;99.90;;;;;;5068445;28;19920;-67
2022/09/09 12:40:39;;;;;;;;;;;20.00;99.90;;;;;;5045760;28;19912;-68
2022/09/09 12:43:21;;;;;;;;;;;20.00;99.90;;;;;;5069730;28;19974;-68
2022/09/09 12:45:50;;;;;;;;;;;20.00;99.90;;;;;;5069072;28;20395;-67
2022/09/09 12:48:17;;;;;;;;;;;20.20;99.90;;;;;;5063008;28;20389;-67
2022/09/09 12:50:50;;;;;;;;;;;20.00;99.90;;;;;;5049477;28;19913;-69
2022/09/09 12:53:15;;;;;;;;;;;20.00;99.90;;;;;;5062191;28;20329;-68
2022/09/09 12:55:49;;;;;;;;;;;20.00;99.90;;;;;;5067879;28;19912;-68
2022/09/09 12:58:16;;;;;;;;;;;20.00;99.90;;;;;;5068339;28;19912;-68
2022/09/09 13:00:50;;;;;;;;;;;19.90;99.90;;;;;;5067150;28;19958;-69
2022/09/09 13:03:17;;;;;;;;;;;20.00;99.90;;;;;;5070423;28;20007;-69
2022/09/09 13:05:42;;;;;;;;;;;19.90;99.90;;;;;;5070184;28;19921;-68
2022/09/09 13:08:12;;;;;;;;;;;19.90;99.90;;;;;;5066823;28;19918;-68
2022/09/09 13:10:40;;;;;;;;;;;19.70;99.90;;;;;;5065500;28;20424;-68
2022/09/09 13:13:16;;;;;;;;;;;19.70;99.90;;;;;;5049294;28;19912;-67
2022/09/09 13:15:48;;;;;;;;;;;19.80;99.90;;;;;;5068909;28;19912;-67
2022/09/09 13:18:14;;;;;;;;;;;19.80;99.90;;;;;;5050047;28;19974;-68
2022/09/09 13:20:46;;;;;;;;;;;19.60;99.90;;;;;;5067701;28;20572;-68
2022/09/09 13:23:11;;;;;;;;;;;19.70;99.90;;;;;;5067921;28;19977;-67
2022/09/09 13:25:38;;;;;;;;;;;19.40;99.90;;;;;;5069874;28;20348;-67
2022/09/09 13:28:04;;;;;;;;;;;19.30;99.90;;;;;;5066632;28;20058;-68
2022/09/09 13:30:32;;;;;;;;;;;19.20;99.90;;;;;;5069816;28;19948;-68
2022/09/09 13:33:14;;;;;;;;;;;19.40;99.90;;;;;;5065406;28;19917;-69
2022/09/09 13:36:09;;;;;;;;;;;19.70;99.90;;;;;;5072119;28;19908;-68
2022/09/09 13:38:53;;;;;;;;;;;19.90;99.90;;;;;;5059958;28;19919;-68
2022/09/09 13:41:23;;;;;;;;;;;19.70;99.90;;;;;;5063234;28;19912;-67
2022/09/09 13:43:49;;;;;;;;;;;19.40;99.90;;;;;;5074581;28;19923;-68
2022/09/09 13:46:33;;;;;;;;;;;19.50;99.90;;;;;;5069064;28;19916;-69
2022/09/09 13:49:03;;;;;;;;;;;19.60;99.90;;;;;;5071314;28;19921;-68
2022/09/09 13:51:37;;;;;;;;;;;19.60;99.90;;;;;;5074786;28;19924;-68
2022/09/09 13:54:06;;;;;;;;;;;19.70;99.90;;;;;;5067332;28;19951;-68
2022/09/09 13:56:32;;;;;;;;;;;19.70;99.90;;;;;;5070390;28;19913;-69
2022/09/09 13:58:58;;;;;;;;;;;19.80;99.90;;;;;;5065148;28;19920;-68
2022/09/09 14:01:23;;;;;;;;;;;19.80;99.90;;;;;;5035897;28;20051;-68
2022/09/09 14:03:50;;;;;;;;;;;19.90;99.90;;;;;;5052759;28;19969;-68
2022/09/09 14:06:18;;;;;;;;;;;20.00;99.90;;;;;;5073771;28;20319;-69
2022/09/09 14:08:45;;;;;;;;;;;20.20;99.90;;;;;;5069071;28;19913;-68
2022/09/09 14:11:12;;;;;;;;;;;20.30;99.90;;;;;;5064859;28;19912;-68
2022/09/09 14:13:38;;;;;;;;;;;20.50;99.90;;;;;;5061810;28;20007;-68
2022/09/09 14:16:03;;;;;;;;;;;20.60;99.90;;;;;;5068284;28;20320;-68
2022/09/09 14:18:29;;;;;;;;;;;20.70;99.90;;;;;;5066585;28;19912;-68
2022/09/09 14:20:55;;;;;;;;;;;20.70;99.90;;;;;;5068276;28;19912;-68
2022/09/09 14:23:21;;;;;;;;;;;20.60;99.90;;;;;;5070248;28;19995;-69
2022/09/09 14:25:48;;;;;;;;;;;20.60;99.90;;;;;;5066308;28;19924;-69
2022/09/09 14:28:15;;;;;;;;;;;20.60;99.90;;;;;;5065700;28;19920;-68